Time;durP1;ratioP1;P1;durP2;ratioP2;P2;SDS_P1;SDS_P2;PMS_P1;PMS_P2;Temp;Humidity;BMP_temperature;BMP_pressure;BME280_temperature;BME280_humidity;BME280_pressure;Samples;Min_cycle;Max_cycle;Signal;HPM_P1;HPM_P2
2022/09/25 00:00:28;;;;;;;6.82;1.60;;;9.80;99.90;;;;;;5081368;28;20040;-50
2022/09/25 00:02:54;;;;;;;3.90;1.48;;;9.80;99.90;;;;;;5080086;28;20068;-49
2022/09/25 00:05:20;;;;;;;5.75;1.65;;;9.80;99.90;;;;;;5081096;28;20056;-50
2022/09/25 00:07:45;;;;;;;7.22;1.60;;;9.80;99.90;;;;;;5079118;28;20041;-51
2022/09/25 00:10:11;;;;;;;7.60;1.83;;;9.80;99.90;;;;;;5080185;28;20067;-50
2022/09/25 00:12:37;;;;;;;8.35;2.65;;;9.80;99.90;;;;;;5080583;28;20075;-51
2022/09/25 00:15:06;;;;;;;3.45;1.27;;;9.70;99.90;;;;;;5079106;28;20044;-48
2022/09/25 00:17:32;;;;;;;7.43;1.45;;;9.60;99.90;;;;;;5081145;28;20439;-50
2022/09/25 00:19:58;;;;;;;5.57;1.73;;;9.70;99.90;;;;;;5079762;28;20048;-49
2022/09/25 00:22:25;;;;;;;5.80;1.38;;;9.70;99.90;;;;;;5080734;28;20091;-52
2022/09/25 00:24:51;;;;;;;5.78;1.60;;;9.60;99.90;;;;;;5080225;28;20051;-50
2022/09/25 00:27:18;;;;;;;6.00;1.38;;;9.60;99.90;;;;;;5078322;28;20060;-49
2022/09/25 00:29:44;;;;;;;4.97;1.50;;;9.70;99.90;;;;;;5080437;28;20052;-48
2022/09/25 00:32:11;;;;;;;8.43;1.70;;;9.70;99.90;;;;;;5078431;28;20072;-52
2022/09/25 00:34:38;;;;;;;8.13;1.35;;;9.80;99.90;;;;;;5079332;28;20436;-52
2022/09/25 00:37:04;;;;;;;7.40;1.60;;;9.70;99.90;;;;;;5079367;28;20071;-50
2022/09/25 00:39:30;;;;;;;9.10;2.05;;;9.60;99.90;;;;;;5060681;28;20033;-54
2022/09/25 00:41:56;;;;;;;8.60;2.10;;;9.70;99.90;;;;;;5079743;28;20563;-52
2022/09/25 00:44:43;;;;;;;10.55;3.30;;;9.80;99.90;;;;;;5079927;28;20040;-54
2022/09/25 00:47:11;;;;;;;7.75;1.88;;;9.90;99.90;;;;;;5080129;28;20036;-54
2022/09/25 00:49:37;;;;;;;7.50;1.90;;;9.90;99.90;;;;;;5079529;28;20045;-52
2022/09/25 00:52:07;;;;;;;6.43;1.63;;;10.10;99.90;;;;;;5080608;28;20072;-53
2022/09/25 00:54:37;;;;;;;8.27;1.50;;;10.10;99.90;;;;;;5079539;28;20048;-52
2022/09/25 00:57:07;;;;;;;5.00;1.63;;;10.20;99.90;;;;;;5079672;28;20048;-54
2022/09/25 00:59:42;;;;;;;9.07;1.70;;;10.20;99.90;;;;;;5080159;28;20056;-53
2022/09/25 01:02:12;;;;;;;6.78;1.70;;;10.20;99.90;;;;;;5079300;28;20055;-51
2022/09/25 01:04:40;;;;;;;5.60;1.55;;;10.20;99.90;;;;;;5080419;28;20119;-53
2022/09/25 01:07:07;;;;;;;8.15;1.90;;;10.20;99.90;;;;;;5077975;28;20080;-54
2022/09/25 01:09:34;;;;;;;6.97;1.60;;;10.40;99.90;;;;;;5078559;28;20501;-52
2022/09/25 01:12:00;;;;;;;9.60;1.80;;;10.20;99.90;;;;;;5079638;28;20045;-54
2022/09/25 01:14:27;;;;;;;8.40;1.98;;;10.30;99.90;;;;;;5079495;28;20306;-51
2022/09/25 01:16:58;;;;;;;6.07;1.58;;;10.10;99.90;;;;;;5079972;28;20067;-53
2022/09/25 01:19:49;;;;;;;9.07;2.20;;;10.20;99.90;;;;;;5079148;28;20040;-52
2022/09/25 01:22:20;;;;;;;5.13;1.50;;;10.20;99.90;;;;;;5080416;28;20048;-53
2022/09/25 01:25:14;;;;;;;6.85;1.65;;;10.00;99.90;;;;;;5079325;28;20152;-51
2022/09/25 01:27:58;;;;;;;6.05;1.63;;;10.00;99.90;;;;;;5079169;28;20048;-53
2022/09/25 01:30:24;;;;;;;8.43;2.38;;;10.00;99.90;;;;;;5080067;28;20045;-53
2022/09/25 01:33:04;;;;;;;8.40;2.40;;;9.90;99.90;;;;;;5077659;28;20070;-53
2022/09/25 01:35:49;;;;;;;7.70;1.48;;;10.00;99.90;;;;;;5079947;28;20037;-51
2022/09/25 01:38:30;;;;;;;7.50;1.50;;;9.90;99.90;;;;;;5070601;28;20051;-51
2022/09/25 01:41:06;;;;;;;6.25;1.40;;;9.80;99.90;;;;;;5069954;28;20560;-51
2022/09/25 01:43:47;;;;;;;7.93;1.65;;;9.70;99.90;;;;;;5079987;28;20044;-51
2022/09/25 01:46:17;;;;;;;5.32;1.40;;;9.70;99.90;;;;;;5079170;28;20084;-49
2022/09/25 01:48:46;;;;;;;5.97;1.52;;;9.80;99.90;;;;;;5079305;28;20051;-51
2022/09/25 01:51:23;;;;;;;4.80;1.35;;;9.70;99.90;;;;;;5081123;28;20617;-50
2022/09/25 01:53:55;;;;;;;7.47;1.52;;;9.90;99.90;;;;;;5082460;28;20055;-50
2022/09/25 01:56:31;;;;;;;8.18;1.67;;;9.70;99.90;;;;;;5082294;28;20399;-50
2022/09/25 01:59:04;;;;;;;5.45;1.50;;;9.70;99.90;;;;;;5082886;28;20044;-48
2022/09/25 02:01:34;;;;;;;8.82;1.73;;;9.60;99.90;;;;;;5082951;28;20040;-49
2022/09/25 02:04:07;;;;;;;7.28;1.80;;;9.60;99.90;;;;;;5083229;28;20040;-51
2022/09/25 02:06:37;;;;;;;6.15;1.60;;;9.60;99.90;;;;;;5082039;28;20040;-52
2022/09/25 02:09:09;;;;;;;6.22;1.50;;;9.60;99.90;;;;;;5083561;28;20037;-50
2022/09/25 02:11:41;;;;;;;5.97;1.42;;;9.40;99.90;;;;;;5082617;28;20409;-51
2022/09/25 02:14:09;;;;;;;;;;;9.50;99.90;;;;;;5083375;28;20036;-50
2022/09/25 02:16:42;;;;;;;7.88;1.58;;;9.40;99.90;;;;;;5083004;28;19924;-50
2022/09/25 02:22:12;;;;;;;4.85;1.90;;;9.30;99.90;;;;;;5083238;28;20063;-49
2022/09/25 02:25:14;;;;;;;7.90;2.00;;;9.30;99.90;;;;;;5082297;28;20040;-48
2022/09/25 02:27:40;;;;;;;6.53;1.80;;;9.30;99.90;;;;;;5082033;28;20127;-52
2022/09/25 02:30:06;;;;;;;8.20;1.98;;;9.20;99.90;;;;;;5082746;28;20107;-52
2022/09/25 02:32:32;;;;;;;6.72;2.00;;;9.20;99.90;;;;;;5082006;28;20036;-49
2022/09/25 02:34:59;;;;;;;6.68;1.75;;;9.20;99.90;;;;;;5083256;28;20036;-48
2022/09/25 02:37:25;;;;;;;6.95;1.80;;;9.10;99.90;;;;;;5080138;28;20052;-50
2022/09/25 02:39:57;;;;;;;7.75;2.13;;;9.20;99.90;;;;;;5064186;28;20416;-51
2022/09/25 02:42:26;;;;;;;;;;;9.00;99.90;;;;;;5083073;28;20044;-51
2022/09/25 02:45:01;;;;;;;9.07;1.85;;;9.00;99.90;;;;;;5082007;28;19920;-49
2022/09/25 02:48:04;;;;;;;5.93;1.73;;;9.20;99.90;;;;;;5082829;28;20047;-49
2022/09/25 02:50:49;;;;;;;8.27;2.30;;;9.10;99.90;;;;;;5081925;28;20052;-48
2022/09/25 02:53:24;;;;;;;6.38;1.95;;;9.10;99.90;;;;;;5074199;28;20064;-49
2022/09/25 02:55:56;;;;;;;8.75;2.03;;;9.10;99.90;;;;;;5082597;28;20598;-50
2022/09/25 02:58:26;;;;;;;;;;;9.10;99.90;;;;;;5081457;28;20067;-48
2022/09/25 03:00:54;;;;;;;8.68;2.72;;;9.00;99.90;;;;;;5082746;28;19981;-49
2022/09/25 03:03:22;;;;;;;7.75;2.00;;;9.10;99.90;;;;;;5081238;28;20094;-49
2022/09/25 03:05:50;;;;;;;6.35;2.13;;;9.20;99.90;;;;;;5081894;28;20230;-49
2022/09/25 03:11:00;;;;;;;6.45;1.98;;;9.00;99.90;;;;;;5080931;28;20064;-50
2022/09/25 03:13:30;;;;;;;5.13;1.77;;;9.20;99.90;;;;;;5080815;28;20060;-49
2022/09/25 03:16:08;;;;;;;7.43;1.90;;;9.10;99.90;;;;;;5081352;28;20076;-50
2022/09/25 03:18:33;;;;;;;8.13;2.20;;;9.10;99.90;;;;;;5081517;28;20079;-49
2022/09/25 03:20:59;;;;;;;9.60;2.30;;;9.10;99.90;;;;;;5080576;28;20097;-50
2022/09/25 03:23:25;;;;;;;8.68;2.22;;;9.20;99.90;;;;;;5080947;28;20040;-52
2022/09/25 03:25:54;;;;;;;5.88;1.95;;;9.10;99.90;;;;;;5081890;28;20059;-50
2022/09/25 03:28:21;;;;;;;6.95;2.42;;;9.20;99.90;;;;;;5080783;28;20061;-49
2022/09/25 03:30:57;;;;;;;4.60;1.75;;;9.10;99.90;;;;;;5082112;28;20047;-50
2022/09/25 03:33:23;;;;;;;6.18;2.13;;;9.10;99.90;;;;;;5081211;28;20522;-49
2022/09/25 03:35:59;;;;;;;5.32;2.10;;;9.00;99.90;;;;;;5080813;28;20040;-50
2022/09/25 03:38:25;;;;;;;7.10;1.88;;;9.00;99.90;;;;;;5071239;28;20140;-49
2022/09/25 03:40:50;;;;;;;7.05;2.38;;;8.90;99.90;;;;;;5071046;28;20084;-49
2022/09/25 03:43:16;;;;;;;6.82;1.83;;;9.00;99.90;;;;;;5081549;28;20079;-51
2022/09/25 03:45:42;;;;;;;7.68;2.20;;;8.90;99.90;;;;;;5080669;28;20476;-51
2022/09/25 03:48:07;;;;;;;5.88;1.75;;;8.80;99.90;;;;;;5081656;28;20047;-49
2022/09/25 03:50:33;;;;;;;5.80;1.90;;;8.80;99.90;;;;;;5080765;28;20134;-50
2022/09/25 03:52:59;;;;;;;6.35;1.95;;;8.70;99.90;;;;;;5079227;28;20079;-50
2022/09/25 03:55:24;;;;;;;5.53;1.90;;;8.70;99.90;;;;;;5081060;28;20052;-49
2022/09/25 03:57:50;;;;;;;6.13;1.77;;;8.70;99.90;;;;;;5080194;28;20068;-50
2022/09/25 04:00:16;;;;;;;6.88;1.80;;;8.70;99.90;;;;;;5081376;28;20485;-49
2022/09/25 04:02:42;;;;;;;6.60;2.03;;;8.70;99.90;;;;;;5080134;28;20049;-52
2022/09/25 04:05:08;;;;;;;8.07;2.47;;;8.90;99.90;;;;;;5081150;28;20045;-51
2022/09/25 04:07:34;;;;;;;7.93;1.85;;;8.80;99.90;;;;;;5080529;28;20040;-51
2022/09/25 04:10:00;;;;;;;5.35;2.08;;;8.80;99.90;;;;;;5080226;28;20486;-52
2022/09/25 04:12:26;;;;;;;4.65;1.50;;;8.80;99.90;;;;;;5080886;28;20044;-51
2022/09/25 04:14:51;;;;;;;5.45;1.80;;;8.70;99.90;;;;;;5079011;28;20048;-50
2022/09/25 04:17:17;;;;;;;6.00;2.00;;;8.60;99.90;;;;;;5080243;28;20044;-50
2022/09/25 04:19:43;;;;;;;5.57;1.80;;;8.60;99.90;;;;;;5079903;28;20067;-49
2022/09/25 04:22:08;;;;;;;5.80;1.80;;;8.60;99.90;;;;;;5081178;28;20047;-52
2022/09/25 04:24:49;;;;;;;7.45;2.33;;;8.60;99.90;;;;;;5080029;28;20112;-51
2022/09/25 04:27:22;;;;;;;6.47;2.00;;;8.20;99.90;;;;;;5079741;28;20538;-50
2022/09/25 04:29:48;;;;;;;6.55;1.60;;;8.50;99.90;;;;;;5080527;28;20074;-50
2022/09/25 04:35:00;;;;;;;6.20;1.90;;;8.60;99.90;;;;;;5080894;28;20079;-51
2022/09/25 04:37:26;;;;;;;7.18;1.70;;;8.50;99.90;;;;;;5077513;28;20048;-51
2022/09/25 04:39:56;;;;;;;5.13;2.13;;;8.60;99.90;;;;;;5060926;28;20071;-48
2022/09/25 04:42:23;;;;;;;4.72;1.63;;;8.50;99.90;;;;;;5080327;28;20065;-49
2022/09/25 04:44:54;;;;;;;7.03;1.90;;;8.50;99.90;;;;;;5079463;28;20040;-50
2022/09/25 04:47:21;;;;;;;5.47;1.92;;;8.50;99.90;;;;;;5080636;28;20137;-49
2022/09/25 04:49:47;;;;;;;6.35;1.48;;;8.50;99.90;;;;;;5079237;28;20566;-49
2022/09/25 04:52:17;;;;;;;5.35;1.85;;;8.50;99.90;;;;;;5080480;28;20044;-50
2022/09/25 04:54:43;;;;;;;5.60;1.80;;;8.40;99.90;;;;;;5079949;28;20048;-48
2022/09/25 04:57:16;;;;;;;6.45;2.00;;;8.50;99.90;;;;;;5079454;28;20062;-50
2022/09/25 04:59:42;;;;;;;6.72;1.73;;;8.50;99.90;;;;;;5079972;28;20036;-49
2022/09/25 05:02:08;;;;;;;6.05;1.88;;;8.50;99.90;;;;;;5079370;28;20050;-52
2022/09/25 05:04:33;;;;;;;9.23;2.78;;;8.50;99.90;;;;;;5080403;28;20080;-49
2022/09/25 05:06:59;;;;;;;5.75;1.88;;;8.50;99.90;;;;;;5079041;28;20411;-48
2022/09/25 05:09:25;;;;;;;4.10;1.50;;;8.40;99.90;;;;;;5080181;28;20044;-48
2022/09/25 05:11:50;;;;;;;5.70;1.70;;;8.50;99.90;;;;;;5079438;28;20040;-48
2022/09/25 05:14:16;;;;;;;5.95;2.65;;;8.50;99.90;;;;;;5079633;28;20041;-49
2022/09/25 05:16:42;;;;;;;6.13;2.00;;;8.40;99.90;;;;;;5079936;28;20048;-52
2022/09/25 05:19:08;;;;;;;7.43;1.88;;;8.40;99.90;;;;;;5079047;28;20079;-50
2022/09/25 05:21:33;;;;;;;7.38;1.98;;;8.40;99.90;;;;;;5078697;28;20106;-51
2022/09/25 05:23:59;;;;;;;8.02;2.13;;;8.40;99.90;;;;;;5079008;28;20036;-47
2022/09/25 05:26:27;;;;;;;6.47;2.00;;;8.30;99.90;;;;;;5080815;28;20054;-49
2022/09/25 05:28:53;;;;;;;8.60;2.17;;;8.40;99.90;;;;;;5083334;28;20071;-50
2022/09/25 05:31:18;;;;;;;5.88;2.08;;;8.40;99.90;;;;;;5083766;28;20083;-48
2022/09/25 05:33:44;;;;;;;7.00;2.38;;;8.50;99.90;;;;;;5083924;28;20037;-51
2022/09/25 05:36:10;;;;;;;8.25;2.88;;;8.40;99.90;;;;;;5083032;28;20063;-50
2022/09/25 05:38:38;;;;;;;9.77;2.55;;;8.40;99.90;;;;;;5072082;28;20048;-49
2022/09/25 05:41:08;;;;;;;8.18;2.42;;;8.40;99.90;;;;;;5070520;28;20047;-51
2022/09/25 05:43:41;;;;;;;9.40;2.58;;;8.40;99.90;;;;;;5080286;28;20131;-51
2022/09/25 05:46:08;;;;;;;7.50;2.30;;;8.40;99.90;;;;;;5079273;28;20079;-49
2022/09/25 05:48:34;;;;;;;7.18;1.90;;;8.40;99.90;;;;;;5079512;28;20056;-48
2022/09/25 05:50:59;;;;;;;6.57;2.20;;;8.50;99.90;;;;;;5078998;28;20554;-51
2022/09/25 05:53:25;;;;;;;5.15;2.10;;;8.50;99.90;;;;;;5078927;28;20041;-50
2022/09/25 05:55:53;;;;;;;6.80;1.75;;;8.50;99.90;;;;;;5079548;28;20044;-49
2022/09/25 05:58:20;;;;;;;7.47;1.90;;;8.40;99.90;;;;;;5078280;28;20654;-50
2022/09/25 06:00:47;;;;;;;5.82;1.83;;;8.50;99.90;;;;;;5080076;28;20053;-50
2022/09/25 06:03:13;;;;;;;6.55;1.85;;;8.50;99.90;;;;;;5078800;28;20209;-49
2022/09/25 06:05:39;;;;;;;6.40;2.08;;;8.50;99.90;;;;;;5079093;28;20068;-51
2022/09/25 06:08:05;;;;;;;6.68;1.83;;;8.50;99.90;;;;;;5079229;28;20037;-50
2022/09/25 06:10:32;;;;;;;5.82;2.00;;;8.60;99.90;;;;;;5078398;28;20045;-53
2022/09/25 06:12:59;;;;;;;6.55;2.20;;;8.60;99.90;;;;;;5079168;28;20183;-52
2022/09/25 06:15:36;;;;;;;5.22;2.10;;;8.70;99.90;;;;;;5078230;28;20056;-50
2022/09/25 06:18:03;;;;;;;4.57;1.90;;;8.70;99.90;;;;;;5076840;28;20057;-50
2022/09/25 06:20:29;;;;;;;6.50;1.95;;;8.70;99.90;;;;;;5078251;28;20283;-51
2022/09/25 06:22:56;;;;;;;5.45;2.05;;;8.80;99.90;;;;;;5078590;28;20051;-49
2022/09/25 06:25:25;;;;;;;6.43;2.10;;;8.90;99.90;;;;;;5078813;28;20048;-50
2022/09/25 06:27:55;;;;;;;6.68;2.00;;;8.80;99.90;;;;;;5078109;28;20490;-51
2022/09/25 06:30:24;;;;;;;8.23;2.28;;;8.90;99.90;;;;;;5078609;28;20047;-49
2022/09/25 06:33:08;;;;;;;6.72;2.58;;;9.00;99.90;;;;;;5077576;28;20043;-48
2022/09/25 06:35:35;;;;;;;7.22;3.05;;;9.30;99.90;;;;;;5075744;28;20044;-50
2022/09/25 06:38:02;;;;;;;6.45;2.17;;;9.10;99.90;;;;;;5077018;28;20079;-51
2022/09/25 06:40:30;;;;;;;6.13;2.30;;;9.10;99.90;;;;;;5076564;28;20131;-50
2022/09/25 06:43:03;;;;;;;8.55;2.38;;;9.20;99.90;;;;;;5078982;28;20056;-52
2022/09/25 06:45:32;;;;;;;8.40;2.47;;;9.30;99.90;;;;;;5077733;28;20051;-49
2022/09/25 06:48:16;;;;;;;6.35;2.17;;;9.40;99.90;;;;;;5078876;28;20037;-49
2022/09/25 06:50:46;;;;;;;9.50;3.28;;;9.50;99.90;;;;;;5077382;28;20059;-49
2022/09/25 06:53:13;;;;;;;9.88;3.47;;;9.60;99.90;;;;;;5076230;28;20125;-49
2022/09/25 06:55:39;;;;;;;7.75;2.20;;;9.70;99.90;;;;;;5077099;28;20102;-51
2022/09/25 06:58:07;;;;;;;8.48;2.08;;;9.70;99.90;;;;;;5077376;28;20056;-50
2022/09/25 07:00:33;;;;;;;6.95;2.25;;;9.80;99.90;;;;;;5078991;28;20055;-51
2022/09/25 07:05:46;;;;;;;6.82;2.30;;;10.00;99.90;;;;;;5076665;28;20179;-49
2022/09/25 07:08:15;;;;;;;6.82;2.13;;;10.10;99.90;;;;;;5078435;28;20071;-51
2022/09/25 07:10:51;;;;;;;8.82;3.22;;;10.40;99.90;;;;;;5076838;28;20048;-52
2022/09/25 07:13:18;;;;;;;8.77;2.45;;;10.50;99.90;;;;;;5078664;28;20050;-49
2022/09/25 07:15:51;;;;;;;7.28;1.95;;;10.70;99.90;;;;;;5077268;28;20052;-50
2022/09/25 07:18:17;;;;;;;9.77;2.17;;;10.70;99.90;;;;;;5078020;28;20112;-49
2022/09/25 07:20:45;;;;;;;7.15;2.03;;;10.70;99.90;;;;;;5078054;28;20076;-52
2022/09/25 07:23:15;;;;;;;9.95;2.22;;;10.80;99.90;;;;;;5069436;28;20076;-51
2022/09/25 07:25:41;;;;;;;7.00;2.33;;;10.90;99.90;;;;;;5069128;28;20083;-49
2022/09/25 07:28:08;;;;;;;7.80;2.13;;;10.90;99.90;;;;;;5067773;28;20534;-49
2022/09/25 07:30:34;;;;;;;8.00;2.10;;;11.10;99.90;;;;;;5076527;28;20048;-51
2022/09/25 07:33:00;;;;;;;8.98;2.28;;;11.10;99.90;;;;;;5076612;28;20043;-51
2022/09/25 07:35:26;;;;;;;6.25;2.22;;;11.20;99.90;;;;;;5077239;28;20040;-52
2022/09/25 07:37:55;;;;;;;8.00;2.22;;;11.30;99.90;;;;;;5077068;28;20043;-52
2022/09/25 07:40:21;;;;;;;6.22;2.13;;;11.30;99.90;;;;;;5072437;28;20040;-52
2022/09/25 07:42:46;;;;;;;6.43;2.20;;;11.30;99.90;;;;;;5075943;28;20089;-53
2022/09/25 07:45:12;;;;;;;8.57;2.30;;;11.40;99.90;;;;;;5076121;28;20097;-54
2022/09/25 07:47:38;;;;;;;7.20;2.40;;;11.30;99.90;;;;;;5074833;28;20125;-53
2022/09/25 07:50:04;;;;;;;9.05;2.30;;;11.50;99.90;;;;;;5074466;28;20048;-55
2022/09/25 07:52:29;;;;;;;10.73;3.47;;;11.40;99.90;;;;;;5075182;28;20033;-56
2022/09/25 07:54:55;;;;;;;10.50;2.28;;;11.30;99.90;;;;;;5076680;28;20363;-58
2022/09/25 07:57:21;;;;;;;8.90;2.45;;;11.30;99.90;;;;;;5075600;28;20049;-58
2022/09/25 07:59:47;;;;;;;6.50;1.98;;;11.50;99.90;;;;;;5076791;28;20112;-56
2022/09/25 08:02:12;;;;;;;9.18;2.20;;;11.30;99.90;;;;;;5076148;28;20175;-56
2022/09/25 08:04:38;;;;;;;9.38;2.92;;;11.40;99.90;;;;;;5076472;28;20037;-56
2022/09/25 08:07:03;;;;;;;9.93;2.97;;;11.40;99.90;;;;;;5075684;28;20036;-54
2022/09/25 08:09:29;;;;;;;10.00;2.63;;;11.50;99.90;;;;;;5076471;28;20044;-54
2022/09/25 08:11:55;;;;;;;9.05;2.60;;;11.40;99.90;;;;;;5076421;28;20057;-53
2022/09/25 08:14:21;;;;;;;10.20;2.78;;;11.50;99.90;;;;;;5074591;28;20036;-54
2022/09/25 08:16:48;;;;;;;8.75;2.33;;;11.40;99.90;;;;;;5075843;28;20052;-53
2022/09/25 08:19:17;;;;;;;9.23;2.42;;;11.40;99.90;;;;;;5072066;28;20059;-54
2022/09/25 08:21:43;;;;;;;9.35;2.75;;;11.40;99.90;;;;;;5073971;28;20148;-52
2022/09/25 08:24:09;;;;;;;8.50;2.70;;;11.40;99.90;;;;;;5075498;28;20053;-52
2022/09/25 08:26:35;;;;;;;7.10;2.38;;;11.30;99.90;;;;;;5074995;28;20056;-52
2022/09/25 08:29:05;;;;;;;11.10;2.88;;;11.30;99.90;;;;;;5075575;28;20327;-52
2022/09/25 08:31:33;;;;;;;15.75;2.90;;;11.30;99.90;;;;;;5075470;28;20033;-50
2022/09/25 08:33:59;;;;;;;8.55;2.83;;;11.40;99.90;;;;;;5076029;28;20044;-50
2022/09/25 08:36:24;;;;;;;8.00;2.40;;;11.60;99.90;;;;;;5075394;28;20597;-51
2022/09/25 08:38:58;;;;;;;8.75;2.53;;;11.50;99.90;;;;;;5075907;28;20048;-50
2022/09/25 08:41:28;;;;;;;7.10;2.17;;;11.70;99.90;;;;;;5071073;28;20055;-53
2022/09/25 08:44:18;;;;;;;9.82;2.22;;;11.80;99.90;;;;;;5074668;28;20045;-52
2022/09/25 08:49:38;;;;;;;8.35;2.10;;;11.70;99.90;;;;;;5074038;28;20141;-50
2022/09/25 08:52:07;;;;;;;8.10;2.35;;;11.90;99.90;;;;;;5073766;28;20067;-50
2022/09/25 08:54:34;;;;;;;7.82;1.80;;;11.80;99.90;;;;;;5075310;28;20037;-51
2022/09/25 08:57:33;;;;;;;8.25;1.90;;;12.00;99.90;;;;;;5074975;28;20048;-51
2022/09/25 09:00:13;;;;;;;7.85;1.70;;;12.20;99.90;;;;;;5056243;28;20045;-50
2022/09/25 09:02:42;;;;;;;8.00;1.65;;;12.20;99.90;;;;;;5071269;28;20055;-51
2022/09/25 09:05:23;;;;;;;7.47;1.65;;;12.40;99.90;;;;;;5075939;28;20071;-51
2022/09/25 09:07:54;;;;;;;7.18;1.80;;;12.40;99.90;;;;;;5076074;28;20043;-49
2022/09/25 09:10:36;;;;;;;7.20;1.58;;;12.30;99.90;;;;;;5075198;28;20087;-51
2022/09/25 09:13:04;;;;;;;5.97;1.50;;;12.40;99.90;;;;;;5076430;28;20052;-49
2022/09/25 09:15:42;;;;;;;6.00;1.63;;;12.40;99.90;;;;;;5074881;28;20083;-47
2022/09/25 09:18:23;;;;;;;8.05;1.67;;;12.60;99.90;;;;;;5075559;28;20057;-52
2022/09/25 09:20:57;;;;;;;5.30;1.27;;;12.60;99.90;;;;;;5075750;28;20493;-51
2022/09/25 09:23:33;;;;;;;7.88;1.70;;;12.80;99.90;;;;;;5074564;28;20051;-51
2022/09/25 09:26:13;;;;;;;5.97;1.60;;;12.80;99.90;;;;;;5067481;28;20392;-51
2022/09/25 09:28:50;;;;;;;6.18;1.50;;;13.00;99.90;;;;;;5068194;28;20048;-49
2022/09/25 09:31:30;;;;;;;6.93;1.20;;;13.20;99.90;;;;;;5074742;28;20056;-51
2022/09/25 09:33:58;;;;;;;6.63;1.20;;;13.30;99.90;;;;;;5074389;28;20052;-52
2022/09/25 09:36:27;;;;;;;7.60;1.20;;;13.50;99.90;;;;;;5065174;28;20044;-49
2022/09/25 09:39:01;;;;;;;4.47;1.40;;;13.70;99.90;;;;;;5068167;28;20036;-48
2022/09/25 09:41:50;;;;;;;6.38;1.25;;;13.70;99.90;;;;;;5052180;28;20104;-51
2022/09/25 09:45:07;;;;;;;3.70;0.90;;;14.00;99.90;;;;;;5067440;28;20048;-49
2022/09/25 09:47:47;;;;;;;5.40;1.00;;;14.20;99.90;;;;;;5063789;28;20052;-49
2022/09/25 09:50:37;;;;;;;4.68;1.00;;;14.20;99.90;;;;;;5067836;28;20078;-51
2022/09/25 09:53:09;;;;;;;5.57;1.27;;;14.10;99.90;;;;;;5065624;28;20758;-48
2022/09/25 09:55:51;;;;;;;3.22;0.80;;;14.20;99.90;;;;;;5067820;28;20124;-48
2022/09/25 09:58:59;;;;;;;5.43;0.80;;;14.20;99.90;;;;;;5066936;28;20084;-49
2022/09/25 10:01:31;;;;;;;1.90;0.68;;;14.20;99.90;;;;;;5062146;28;20160;-49
2022/09/25 10:04:03;;;;;;;2.03;0.63;;;14.30;99.90;;;;;;5067968;28;20707;-51
2022/09/25 10:06:32;;;;;;;1.92;0.68;;;14.20;99.90;;;;;;5066844;28;20916;-50
2022/09/25 10:08:58;;;;;;;3.30;0.70;;;14.30;99.90;;;;;;5068357;28;20072;-49
2022/09/25 10:11:25;;;;;;;2.63;0.60;;;14.40;99.90;;;;;;5067738;28;20114;-51
2022/09/25 10:13:52;;;;;;;2.03;0.70;;;14.40;99.90;;;;;;5071273;28;20107;-48
2022/09/25 10:16:27;;;;;;;2.83;0.60;;;14.50;99.90;;;;;;5071391;28;20052;-49
2022/09/25 10:19:19;;;;;;;4.45;0.80;;;14.60;99.90;;;;;;5070803;28;20131;-48
2022/09/25 10:22:12;;;;;;;2.05;0.70;;;14.70;99.90;;;;;;5071779;28;20067;-50
2022/09/25 10:24:52;;;;;;;3.50;0.70;;;14.70;99.90;;;;;;5069955;28;20514;-50
2022/09/25 10:27:26;;;;;;;3.90;0.63;;;14.70;99.90;;;;;;5070296;28;20052;-47
2022/09/25 10:30:09;;;;;;;1.98;0.57;;;14.70;99.90;;;;;;5071722;28;20048;-51
2022/09/25 10:32:42;;;;;;;1.65;0.70;;;14.50;99.90;;;;;;5070144;28;20033;-49
2022/09/25 10:35:18;;;;;;;3.15;1.02;;;14.50;99.90;;;;;;5071244;28;20062;-51
2022/09/25 10:37:46;;;;;;;2.30;0.60;;;14.60;99.90;;;;;;5071010;28;20056;-51
2022/09/25 10:40:30;;;;;;;3.53;0.70;;;14.70;99.90;;;;;;5062913;28;20390;-51
2022/09/25 10:43:05;;;;;;;2.78;0.65;;;14.70;99.90;;;;;;5078430;28;20079;-48
2022/09/25 10:45:33;;;;;;;2.72;0.60;;;14.70;99.90;;;;;;5077703;28;20584;-50
2022/09/25 10:50:44;;;;;;;2.70;0.65;;;14.60;99.90;;;;;;5077741;28;20053;-49
2022/09/25 10:53:29;;;;;;;6.07;0.90;;;14.60;99.90;;;;;;5076686;28;20048;-50
2022/09/25 10:56:05;;;;;;;2.85;0.70;;;14.60;99.90;;;;;;5078130;28;20055;-48
2022/09/25 10:58:56;;;;;;;3.15;0.80;;;14.60;99.90;;;;;;5080346;28;20118;-50
2022/09/25 11:01:38;;;;;;;3.92;0.60;;;14.60;99.90;;;;;;5077895;28;20417;-49
2022/09/25 11:04:06;;;;;;;;;;;14.50;99.90;;;;;;5082631;28;20045;-50
2022/09/25 11:06:33;;;;;;;4.38;1.10;;;14.50;99.90;;;;;;5081182;28;19999;-49
2022/09/25 11:09:20;;;;;;;2.90;0.60;;;14.50;99.90;;;;;;5082371;28;20045;-53
2022/09/25 11:11:48;;;;;;;5.50;0.70;;;14.60;99.90;;;;;;5081736;28;20045;-50
2022/09/25 11:14:22;;;;;;;4.53;0.75;;;14.70;99.90;;;;;;5079003;28;20051;-52
2022/09/25 11:16:51;;;;;;;3.42;0.80;;;14.70;99.90;;;;;;5069356;28;20043;-51
2022/09/25 11:19:29;;;;;;;5.18;1.10;;;14.70;99.90;;;;;;5062039;28;20066;-50
2022/09/25 11:22:24;;;;;;;4.13;0.90;;;15.00;99.90;;;;;;5063715;28;20037;-51
2022/09/25 11:25:10;;;;;;;4.07;0.93;;;15.10;99.90;;;;;;5071874;28;20108;-49
2022/09/25 11:27:45;;;;;;;4.40;0.80;;;15.20;99.90;;;;;;5072263;28;20119;-51
2022/09/25 11:30:17;;;;;;;6.22;0.93;;;15.40;99.90;;;;;;5071673;28;20052;-51
2022/09/25 11:33:23;;;;;;;6.10;2.10;;;15.30;99.90;;;;;;5072030;28;20095;-51
2022/09/25 11:35:56;;;;;;;3.63;0.85;;;15.60;99.90;;;;;;5067908;28;20128;-51
2022/09/25 11:41:35;;;;;;;4.35;0.80;;;15.90;99.90;;;;;;5071824;28;20103;-49
2022/09/25 11:44:08;;;;;;;7.90;1.10;;;16.10;99.90;;;;;;5072490;28;20098;-48
2022/09/25 11:46:55;;;;;;;5.57;1.20;;;16.20;99.90;;;;;;5071978;28;20041;-52
2022/09/25 11:49:40;;;;;;;3.67;0.70;;;15.80;99.90;;;;;;5071240;28;20132;-49
2022/09/25 11:52:09;;;;;;;3.10;0.70;;;15.80;99.90;;;;;;5071246;28;20102;-48
2022/09/25 11:54:37;;;;;;;3.72;0.70;;;15.90;99.90;;;;;;5069950;28;20145;-51
2022/09/25 11:57:19;;;;;;;3.78;0.70;;;15.80;99.90;;;;;;5070951;28;20049;-52
2022/09/25 12:00:05;;;;;;;4.38;0.80;;;15.60;99.90;;;;;;5073009;28;20074;-50
2022/09/25 12:02:44;;;;;;;2.50;0.60;;;15.30;99.90;;;;;;5069678;28;20124;-49
2022/09/25 12:06:03;;;;;;;4.00;1.05;;;15.20;99.90;;;;;;5067616;28;20158;-52
2022/09/25 12:08:57;;;;;;;4.15;0.80;;;15.10;99.90;;;;;;5068582;28;20110;-50
2022/09/25 12:11:41;;;;;;;4.22;0.85;;;14.90;99.90;;;;;;5070198;28;20052;-49
2022/09/25 12:14:18;;;;;;;2.28;0.52;;;14.90;99.90;;;;;;5085221;28;20079;-51
2022/09/25 12:16:59;;;;;;;4.75;0.90;;;14.80;99.90;;;;;;5070989;28;20041;-51
2022/09/25 12:19:48;;;;;;;4.93;0.80;;;14.70;99.90;;;;;;5065746;28;20057;-51
2022/09/25 12:22:51;;;;;;;3.20;0.90;;;14.70;99.90;;;;;;5064182;28;20041;-49
2022/09/25 12:25:48;;;;;;;3.15;0.90;;;14.70;99.90;;;;;;5059767;28;20055;-50
2022/09/25 12:28:23;;;;;;;4.68;0.85;;;14.90;99.90;;;;;;5059704;28;20051;-49
2022/09/25 12:30:58;;;;;;;5.75;1.10;;;15.10;99.90;;;;;;5058722;28;20056;-52
2022/09/25 12:33:55;;;;;;;4.63;0.90;;;15.20;99.90;;;;;;5060182;28;20045;-52
2022/09/25 12:36:34;;;;;;;6.00;1.20;;;15.40;99.90;;;;;;5058804;28;20056;-52
2022/09/25 12:39:12;;;;;;;4.13;1.10;;;15.30;99.90;;;;;;5073457;28;20048;-52
2022/09/25 12:41:52;;;;;;;5.97;1.00;;;15.30;99.90;;;;;;5080046;28;20048;-48
2022/09/25 12:44:19;;;;;;;9.40;1.08;;;15.50;99.90;;;;;;5079560;28;20044;-51
2022/09/25 12:47:09;;;;;;;4.53;1.00;;;15.50;99.90;;;;;;5080023;28;20048;-51
2022/09/25 12:49:55;;;;;;;4.95;0.80;;;15.50;99.90;;;;;;5077635;28;20052;-51
2022/09/25 12:52:32;;;;;;;7.25;0.95;;;15.60;99.90;;;;;;5079016;28;20052;-51
2022/09/25 12:55:08;;;;;;;4.70;0.82;;;15.70;99.90;;;;;;5079228;28;20044;-52
2022/09/25 12:57:47;;;;;;;3.85;0.93;;;15.70;99.90;;;;;;5078722;28;20052;-50
2022/09/25 13:00:24;;;;;;;6.15;0.85;;;15.70;99.90;;;;;;5073977;28;20090;-51
2022/09/25 13:03:03;;;;;;;2.30;0.65;;;15.70;99.90;;;;;;5068622;28;20041;-50
2022/09/25 13:05:35;;;;;;;4.10;0.80;;;15.50;99.90;;;;;;5069145;28;20115;-49
2022/09/25 13:08:19;;;;;;;6.10;0.90;;;15.50;99.90;;;;;;5069153;28;20044;-53
2022/09/25 13:10:52;;;;;;;3.08;0.65;;;15.50;99.90;;;;;;5077076;28;20127;-49
2022/09/25 13:13:23;;;;;;;3.83;0.63;;;15.50;99.90;;;;;;5070680;28;20040;-50
2022/09/25 13:15:54;;;;;;;4.20;0.70;;;15.60;99.90;;;;;;5066860;28;20025;-49
2022/09/25 13:18:23;;;;;;;6.63;0.73;;;15.60;99.90;;;;;;5067453;28;20597;-52
2022/09/25 13:21:23;;;;;;;4.57;0.85;;;15.50;99.90;;;;;;5067315;28;20041;-51
2022/09/25 13:23:51;;;;;;;2.78;0.63;;;15.70;99.90;;;;;;5066521;28;20043;-49
2022/09/25 13:26:25;;;;;;;3.67;0.82;;;15.70;99.90;;;;;;5068778;28;20435;-49
2022/09/25 13:28:56;;;;;;;4.45;0.90;;;15.60;99.90;;;;;;5067446;28;20044;-50
2022/09/25 13:31:26;;;;;;;5.47;0.77;;;15.50;99.90;;;;;;5067309;28;20111;-52
2022/09/25 13:34:02;;;;;;;5.47;0.77;;;15.50;99.90;;;;;;5067563;28;20048;-50
2022/09/25 13:36:33;;;;;;;2.08;0.60;;;15.40;99.90;;;;;;5066421;28;20280;-49
2022/09/25 13:42:24;;;;;;;4.10;0.82;;;15.50;99.90;;;;;;5072699;28;20052;-51